TKJ4RV LTFJ-LTAJ
Flight info
| Callsign | TKJ4RV |
|---|---|
| Flight time | 1h 12m |
| Altitude | 37000 |
| Route | VICEN UT57 VEVUD UT341 BAG UL605 RATSI UA17 BOYAT |
| Aircraft | B738/M-SDE2E3FGHIRWXY/LB1 |
Departure
| Time | 2026-05-01 09:58 |
|---|---|
| Airport | Istanbul Sabiha Gökçen International Airport (LTFJ) |
Arrival
| Time | 2026-05-01 11:10 |
|---|---|
| Airport | Gaziantep Oğuzeli International Airport (LTAJ) |
| Time | Latitude | Longitude | Altitude | Speed | Heading |
|---|---|---|---|---|---|
| 2026-05-01 09:23 | 40.90708 | 29.31910 | 320 ft | 0 kts | 333° |
| 2026-05-01 09:46 | 40.90708 | 29.31911 | 320 ft | 1 kts | 333° |
| 2026-05-01 09:47 | 40.90686 | 29.31925 | 320 ft | 4 kts | 334° |
| 2026-05-01 09:47 | 40.90667 | 29.31937 | 319 ft | 4 kts | 334° |
| 2026-05-01 09:47 | 40.90646 | 29.31950 | 318 ft | 4 kts | 312° |
| 2026-05-01 09:47 | 40.90645 | 29.31970 | 317 ft | 4 kts | 244° |
| 2026-05-01 09:48 | 40.90657 | 29.32000 | 318 ft | 3 kts | 245° |
| 2026-05-01 09:48 | 40.90658 | 29.32005 | 316 ft | 0 kts | 245° |
| 2026-05-01 09:51 | 40.90650 | 29.31982 | 317 ft | 5 kts | 244° |
| 2026-05-01 09:51 | 40.90617 | 29.31936 | 318 ft | 8 kts | 198° |
| 2026-05-01 09:52 | 40.90564 | 29.31950 | 320 ft | 8 kts | 156° |
| 2026-05-01 09:52 | 40.90509 | 29.31985 | 320 ft | 9 kts | 155° |
| 2026-05-01 09:52 | 40.90452 | 29.31967 | 318 ft | 9 kts | 231° |
| 2026-05-01 09:52 | 40.90423 | 29.31892 | 320 ft | 10 kts | 244° |
| 2026-05-01 09:53 | 40.90389 | 29.31801 | 320 ft | 12 kts | 244° |
| 2026-05-01 09:53 | 40.90346 | 29.31684 | 320 ft | 16 kts | 244° |
| 2026-05-01 09:53 | 40.90293 | 29.31540 | 319 ft | 19 kts | 244° |
| 2026-05-01 09:53 | 40.90232 | 29.31373 | 320 ft | 22 kts | 244° |
| 2026-05-01 09:54 | 40.90163 | 29.31186 | 319 ft | 23 kts | 244° |
| 2026-05-01 09:54 | 40.90094 | 29.30997 | 320 ft | 22 kts | 244° |
| 2026-05-01 09:54 | 40.90027 | 29.30814 | 320 ft | 22 kts | 244° |
| 2026-05-01 09:54 | 40.89961 | 29.30635 | 320 ft | 22 kts | 244° |
| 2026-05-01 09:55 | 40.89889 | 29.30440 | 319 ft | 25 kts | 244° |
| 2026-05-01 09:55 | 40.89810 | 29.30224 | 320 ft | 26 kts | 244° |
| 2026-05-01 09:55 | 40.89733 | 29.30015 | 320 ft | 25 kts | 244° |
| 2026-05-01 09:55 | 40.89661 | 29.29818 | 319 ft | 23 kts | 244° |
| 2026-05-01 09:56 | 40.89592 | 29.29631 | 320 ft | 22 kts | 244° |
| 2026-05-01 09:56 | 40.89525 | 29.29448 | 320 ft | 22 kts | 244° |
| 2026-05-01 09:56 | 40.89468 | 29.29297 | 319 ft | 13 kts | 238° |
| 2026-05-01 09:56 | 40.89402 | 29.29254 | 320 ft | 10 kts | 177° |
| 2026-05-01 09:57 | 40.89337 | 29.29287 | 319 ft | 10 kts | 153° |
| 2026-05-01 09:57 | 40.89295 | 29.29354 | 321 ft | 10 kts | 103° |
| 2026-05-01 09:57 | 40.89310 | 29.29438 | 319 ft | 10 kts | 64° |
| 2026-05-01 09:57 | 40.89371 | 29.29606 | 321 ft | 48 kts | 64° |
| 2026-05-01 09:58 | 40.89626 | 29.30297 | 321 ft | 117 kts | 64° |
| 2026-05-01 09:58 | 40.90056 | 29.31465 | 515 ft | 154 kts | 62° |
| 2026-05-01 09:58 | 40.90519 | 29.32746 | 1351 ft | 155 kts | 62° |
| 2026-05-01 09:58 | 40.90989 | 29.34036 | 2109 ft | 159 kts | 61° |
| 2026-05-01 09:59 | 40.91516 | 29.35449 | 2473 ft | 185 kts | 62° |
| 2026-05-01 09:59 | 40.92115 | 29.37077 | 2687 ft | 209 kts | 62° |
| 2026-05-01 09:59 | 40.92750 | 29.38880 | 3067 ft | 225 kts | 69° |
| 2026-05-01 09:59 | 40.92865 | 29.40991 | 3662 ft | 241 kts | 97° |
| 2026-05-01 10:00 | 40.92178 | 29.43066 | 4317 ft | 258 kts | 125° |
| 2026-05-01 10:00 | 40.90777 | 29.44614 | 5032 ft | 270 kts | 147° |
| 2026-05-01 10:00 | 40.89215 | 29.45946 | 5736 ft | 270 kts | 129° |
| 2026-05-01 10:00 | 40.88374 | 29.48079 | 6501 ft | 262 kts | 96° |
| 2026-05-01 10:01 | 40.88470 | 29.50451 | 7202 ft | 260 kts | 77° |
| 2026-05-01 10:01 | 40.88816 | 29.52824 | 7871 ft | 266 kts | 76° |
| 2026-05-01 10:01 | 40.89190 | 29.55232 | 8593 ft | 270 kts | 76° |
| 2026-05-01 10:01 | 40.89592 | 29.57700 | 9260 ft | 277 kts | 76° |
| 2026-05-01 10:02 | 40.90022 | 29.60211 | 9970 ft | 283 kts | 76° |
| 2026-05-01 10:02 | 40.90486 | 29.62774 | 10582 ft | 290 kts | 76° |
| 2026-05-01 10:02 | 40.90970 | 29.65393 | 11153 ft | 297 kts | 76° |
| 2026-05-01 10:02 | 40.91485 | 29.68067 | 11774 ft | 303 kts | 71° |
| 2026-05-01 10:03 | 40.92423 | 29.70587 | 12366 ft | 309 kts | 58° |
| 2026-05-01 10:03 | 40.93564 | 29.73020 | 13001 ft | 314 kts | 56° |
| 2026-05-01 10:03 | 40.94743 | 29.75473 | 13713 ft | 318 kts | 56° |
| 2026-05-01 10:03 | 40.95939 | 29.77954 | 14371 ft | 322 kts | 56° |
| 2026-05-01 10:04 | 40.97154 | 29.80466 | 15014 ft | 326 kts | 56° |
| 2026-05-01 10:04 | 40.98389 | 29.83021 | 15620 ft | 332 kts | 56° |
| 2026-05-01 10:04 | 40.99636 | 29.85628 | 16226 ft | 339 kts | 59° |
| 2026-05-01 10:04 | 41.00663 | 29.88467 | 16838 ft | 345 kts | 69° |
| 2026-05-01 10:05 | 41.01341 | 29.91500 | 17446 ft | 351 kts | 78° |
| 2026-05-01 10:05 | 41.01797 | 29.94707 | 18102 ft | 358 kts | 83° |
| 2026-05-01 10:05 | 41.02098 | 29.98005 | 18711 ft | 364 kts | 85° |
| 2026-05-01 10:05 | 41.02356 | 30.01366 | 19298 ft | 368 kts | 86° |
| 2026-05-01 10:06 | 41.02614 | 30.04745 | 19889 ft | 370 kts | 86° |
| 2026-05-01 10:06 | 41.02871 | 30.08153 | 20451 ft | 373 kts | 89° |
| 2026-05-01 10:06 | 41.02567 | 30.11519 | 20949 ft | 366 kts | 116° |
| 2026-05-01 10:06 | 41.01278 | 30.14323 | 21556 ft | 351 kts | 139° |
| 2026-05-01 10:07 | 40.99553 | 30.16574 | 22232 ft | 347 kts | 144° |
| 2026-05-01 10:07 | 40.97757 | 30.18715 | 22825 ft | 348 kts | 146° |
| 2026-05-01 10:07 | 40.95933 | 30.20849 | 23389 ft | 351 kts | 146° |
| 2026-05-01 10:07 | 40.94091 | 30.22975 | 23924 ft | 353 kts | 146° |
| 2026-05-01 10:08 | 40.90368 | 30.27240 | 24877 ft | 356 kts | 147° |
| 2026-05-01 10:08 | 40.88491 | 30.29389 | 25356 ft | 358 kts | 147° |
| 2026-05-01 10:08 | 40.86602 | 30.31552 | 25847 ft | 360 kts | 147° |
| 2026-05-01 10:09 | 40.84705 | 30.33725 | 26379 ft | 361 kts | 147° |
| 2026-05-01 10:09 | 40.82816 | 30.35892 | 27014 ft | 358 kts | 147° |
| 2026-05-01 10:09 | 40.80951 | 30.38033 | 27655 ft | 355 kts | 147° |
| 2026-05-01 10:09 | 40.79054 | 30.40198 | 27811 ft | 367 kts | 147° |
| 2026-05-01 10:10 | 40.77087 | 30.42435 | 27893 ft | 380 kts | 147° |
| 2026-05-01 10:10 | 40.75750 | 30.43956 | 27949 ft | 388 kts | 147° |
| 2026-05-01 10:10 | 40.70800 | 30.49596 | 28140 ft | 415 kts | 146° |
| 2026-05-01 10:11 | 40.68635 | 30.52069 | 28352 ft | 420 kts | 146° |
| 2026-05-01 10:11 | 40.66400 | 30.54624 | 28753 ft | 420 kts | 146° |
| 2026-05-01 10:11 | 40.64219 | 30.57114 | 29132 ft | 421 kts | 146° |
| 2026-05-01 10:11 | 40.61995 | 30.59646 | 29472 ft | 423 kts | 146° |
| 2026-05-01 10:12 | 40.59761 | 30.62184 | 29789 ft | 426 kts | 146° |
| 2026-05-01 10:12 | 40.58243 | 30.63908 | 30024 ft | 427 kts | 146° |
| 2026-05-01 10:12 | 40.52970 | 30.69887 | 30655 ft | 435 kts | 145° |
| 2026-05-01 10:13 | 40.50865 | 30.72825 | 30905 ft | 449 kts | 134° |
| 2026-05-01 10:13 | 40.49147 | 30.76307 | 31180 ft | 460 kts | 123° |
| 2026-05-01 10:13 | 40.47890 | 30.80212 | 31420 ft | 471 kts | 114° |
| 2026-05-01 10:14 | 40.45988 | 30.88509 | 31912 ft | 477 kts | 111° |
| 2026-05-01 10:14 | 40.45059 | 30.92705 | 32089 ft | 481 kts | 111° |
| 2026-05-01 10:14 | 40.44102 | 30.96925 | 32284 ft | 483 kts | 112° |
| 2026-05-01 10:14 | 40.43122 | 31.01141 | 32534 ft | 483 kts | 112° |
| 2026-05-01 10:15 | 40.42123 | 31.05363 | 32831 ft | 484 kts | 112° |
| 2026-05-01 10:15 | 40.41132 | 31.09518 | 33183 ft | 482 kts | 112° |
| 2026-05-01 10:15 | 40.40131 | 31.13707 | 33542 ft | 481 kts | 112° |
| 2026-05-01 10:15 | 40.39131 | 31.17889 | 33862 ft | 481 kts | 112° |
| 2026-05-01 10:16 | 40.38139 | 31.22068 | 34171 ft | 480 kts | 110° |
| 2026-05-01 10:16 | 40.37319 | 31.26328 | 34417 ft | 482 kts | 107° |
| 2026-05-01 10:16 | 40.35949 | 31.34946 | 34886 ft | 483 kts | 105° |
| 2026-05-01 10:17 | 40.35288 | 31.39268 | 35113 ft | 483 kts | 105° |
| 2026-05-01 10:17 | 40.33930 | 31.47883 | 35582 ft | 482 kts | 105° |
| 2026-05-01 10:17 | 40.33233 | 31.52185 | 35806 ft | 482 kts | 105° |
| 2026-05-01 10:18 | 40.31821 | 31.60773 | 36224 ft | 483 kts | 105° |
| 2026-05-01 10:18 | 40.31110 | 31.65074 | 36416 ft | 483 kts | 105° |
| 2026-05-01 10:18 | 40.30398 | 31.69375 | 36586 ft | 484 kts | 105° |
| 2026-05-01 10:19 | 40.29685 | 31.73678 | 36805 ft | 483 kts | 105° |
| 2026-05-01 10:19 | 40.28971 | 31.77979 | 37031 ft | 483 kts | 105° |
| 2026-05-01 10:19 | 40.28254 | 31.82293 | 37051 ft | 487 kts | 105° |
| 2026-05-01 10:20 | 40.25995 | 31.95290 | 37042 ft | 486 kts | 108° |
| 2026-05-01 10:20 | 40.24152 | 32.03760 | 37032 ft | 481 kts | 110° |
| 2026-05-01 10:21 | 40.21342 | 32.16291 | 37014 ft | 477 kts | 110° |
| 2026-05-01 10:22 | 40.18602 | 32.28758 | 37007 ft | 475 kts | 109° |
| 2026-05-01 10:23 | 40.15857 | 32.41238 | 37006 ft | 477 kts | 109° |
| 2026-05-01 10:23 | 40.13124 | 32.53580 | 36986 ft | 481 kts | 110° |
| 2026-05-01 10:24 | 40.09368 | 32.70439 | 36982 ft | 486 kts | 110° |
| 2026-05-01 10:25 | 40.04546 | 32.85163 | 36952 ft | 474 kts | 133° |
| 2026-05-01 10:26 | 40.00368 | 32.91754 | 36959 ft | 471 kts | 135° |
| 2026-05-01 10:27 | 39.92029 | 33.04808 | 36958 ft | 470 kts | 134° |
| 2026-05-01 10:28 | 39.85813 | 33.14655 | 36956 ft | 468 kts | 134° |
| 2026-05-01 10:28 | 39.79601 | 33.24467 | 36951 ft | 468 kts | 134° |
| 2026-05-01 10:29 | 39.73386 | 33.34250 | 36946 ft | 467 kts | 134° |
| 2026-05-01 10:30 | 39.65107 | 33.47236 | 36945 ft | 466 kts | 134° |
| 2026-05-01 10:31 | 39.56832 | 33.60183 | 36947 ft | 466 kts | 133° |
| 2026-05-01 10:32 | 39.50755 | 33.70062 | 36944 ft | 468 kts | 133° |
| 2026-05-01 10:33 | 39.42579 | 33.83139 | 36942 ft | 469 kts | 134° |
| 2026-05-01 10:34 | 39.36248 | 33.92811 | 36933 ft | 470 kts | 134° |
| 2026-05-01 10:34 | 39.32043 | 33.99278 | 36944 ft | 470 kts | 134° |
| 2026-05-01 10:35 | 39.25765 | 34.09023 | 36932 ft | 471 kts | 134° |
| 2026-05-01 10:35 | 39.21605 | 34.15471 | 36939 ft | 470 kts | 134° |
| 2026-05-01 10:36 | 39.15309 | 34.25194 | 36925 ft | 471 kts | 134° |
| 2026-05-01 10:37 | 39.11430 | 34.32009 | 36926 ft | 474 kts | 124° |
| 2026-05-01 10:37 | 39.05548 | 34.42089 | 36917 ft | 468 kts | 134° |
| 2026-05-01 10:38 | 39.01298 | 34.48427 | 36927 ft | 467 kts | 134° |
| 2026-05-01 10:38 | 38.97093 | 34.54786 | 36924 ft | 467 kts | 134° |
| 2026-05-01 10:39 | 38.92918 | 34.61189 | 36926 ft | 467 kts | 133° |
| 2026-05-01 10:39 | 38.88763 | 34.67579 | 36932 ft | 466 kts | 133° |
| 2026-05-01 10:40 | 38.84633 | 34.73914 | 36933 ft | 466 kts | 134° |
| 2026-05-01 10:40 | 38.80470 | 34.80284 | 36928 ft | 465 kts | 133° |
| 2026-05-01 10:41 | 38.76305 | 34.86641 | 36921 ft | 466 kts | 134° |
| 2026-05-01 10:42 | 38.70048 | 34.96169 | 36926 ft | 466 kts | 134° |
| 2026-05-01 10:42 | 38.65876 | 35.02508 | 36913 ft | 465 kts | 134° |
| 2026-05-01 10:43 | 38.61692 | 35.08850 | 36668 ft | 469 kts | 133° |
| 2026-05-01 10:43 | 38.59588 | 35.12036 | 36399 ft | 468 kts | 133° |
| 2026-05-01 10:43 | 38.57496 | 35.15202 | 36139 ft | 465 kts | 133° |
| 2026-05-01 10:43 | 38.55413 | 35.18352 | 35890 ft | 464 kts | 133° |
| 2026-05-01 10:44 | 38.53324 | 35.21504 | 35639 ft | 465 kts | 133° |
| 2026-05-01 10:44 | 38.51232 | 35.24645 | 35395 ft | 464 kts | 134° |
| 2026-05-01 10:44 | 38.49116 | 35.27762 | 35147 ft | 464 kts | 134° |
| 2026-05-01 10:44 | 38.47016 | 35.30827 | 34912 ft | 464 kts | 134° |
| 2026-05-01 10:45 | 38.44888 | 35.33923 | 34663 ft | 464 kts | 134° |
| 2026-05-01 10:45 | 38.42758 | 35.37022 | 34432 ft | 464 kts | 134° |
| 2026-05-01 10:45 | 38.40628 | 35.40124 | 34190 ft | 464 kts | 134° |
| 2026-05-01 10:45 | 38.38502 | 35.43220 | 33949 ft | 464 kts | 134° |
| 2026-05-01 10:46 | 38.36380 | 35.46313 | 33693 ft | 464 kts | 134° |
| 2026-05-01 10:46 | 38.34256 | 35.49407 | 33423 ft | 463 kts | 134° |
| 2026-05-01 10:46 | 38.32138 | 35.52489 | 33151 ft | 462 kts | 134° |
| 2026-05-01 10:46 | 38.30019 | 35.55570 | 32874 ft | 461 kts | 134° |
| 2026-05-01 10:47 | 38.27910 | 35.58633 | 32616 ft | 459 kts | 134° |
| 2026-05-01 10:47 | 38.25810 | 35.61681 | 32354 ft | 457 kts | 134° |
| 2026-05-01 10:47 | 38.23721 | 35.64709 | 32097 ft | 454 kts | 134° |
| 2026-05-01 10:47 | 38.21641 | 35.67722 | 31839 ft | 452 kts | 134° |
| 2026-05-01 10:48 | 38.19573 | 35.70714 | 31573 ft | 449 kts | 134° |
| 2026-05-01 10:48 | 38.17524 | 35.73678 | 31171 ft | 443 kts | 134° |
| 2026-05-01 10:48 | 38.15500 | 35.76600 | 30735 ft | 439 kts | 134° |
| 2026-05-01 10:48 | 38.13490 | 35.79497 | 30302 ft | 436 kts | 134° |
| 2026-05-01 10:49 | 38.11489 | 35.82371 | 29838 ft | 433 kts | 134° |
| 2026-05-01 10:49 | 38.09499 | 35.85222 | 29328 ft | 429 kts | 134° |
| 2026-05-01 10:49 | 38.07532 | 35.88038 | 28872 ft | 425 kts | 134° |
| 2026-05-01 10:49 | 38.05606 | 35.90793 | 28411 ft | 421 kts | 134° |
| 2026-05-01 10:50 | 38.03675 | 35.93555 | 27968 ft | 417 kts | 134° |
| 2026-05-01 10:50 | 38.01757 | 35.96296 | 27513 ft | 414 kts | 134° |
| 2026-05-01 10:50 | 37.99853 | 35.99016 | 27066 ft | 411 kts | 134° |
| 2026-05-01 10:50 | 37.97962 | 36.01714 | 26629 ft | 408 kts | 134° |
| 2026-05-01 10:51 | 37.96128 | 36.04329 | 26198 ft | 405 kts | 134° |
| 2026-05-01 10:51 | 37.94263 | 36.06986 | 25761 ft | 402 kts | 134° |
| 2026-05-01 10:51 | 37.92405 | 36.09632 | 25339 ft | 400 kts | 134° |
| 2026-05-01 10:51 | 37.90561 | 36.12255 | 24902 ft | 398 kts | 134° |
| 2026-05-01 10:52 | 37.88720 | 36.14872 | 24473 ft | 396 kts | 134° |
| 2026-05-01 10:52 | 37.86891 | 36.17471 | 24051 ft | 394 kts | 134° |
| 2026-05-01 10:52 | 37.85066 | 36.20060 | 23586 ft | 394 kts | 134° |
| 2026-05-01 10:52 | 37.83246 | 36.22642 | 23094 ft | 392 kts | 134° |
| 2026-05-01 10:53 | 37.81438 | 36.25217 | 22589 ft | 391 kts | 134° |
| 2026-05-01 10:53 | 37.79645 | 36.27778 | 22131 ft | 387 kts | 134° |
| 2026-05-01 10:53 | 37.77889 | 36.30285 | 21716 ft | 384 kts | 134° |
| 2026-05-01 10:53 | 37.76126 | 36.32800 | 21287 ft | 381 kts | 134° |
| 2026-05-01 10:54 | 37.74376 | 36.35294 | 20882 ft | 378 kts | 134° |
| 2026-05-01 10:54 | 37.72637 | 36.37770 | 20469 ft | 375 kts | 134° |
| 2026-05-01 10:54 | 37.70911 | 36.40224 | 20066 ft | 373 kts | 134° |
| 2026-05-01 10:54 | 37.69196 | 36.42662 | 19645 ft | 370 kts | 134° |
| 2026-05-01 10:55 | 37.67491 | 36.45083 | 19242 ft | 368 kts | 134° |
| 2026-05-01 10:55 | 37.65795 | 36.47487 | 18838 ft | 365 kts | 134° |
| 2026-05-01 10:55 | 37.64109 | 36.49878 | 18433 ft | 364 kts | 134° |
| 2026-05-01 10:55 | 37.62431 | 36.52254 | 17974 ft | 362 kts | 134° |
| 2026-05-01 10:56 | 37.60763 | 36.54616 | 17542 ft | 359 kts | 134° |
| 2026-05-01 10:56 | 37.59108 | 36.56958 | 17112 ft | 357 kts | 134° |
| 2026-05-01 10:56 | 37.57465 | 36.59282 | 16701 ft | 354 kts | 134° |
| 2026-05-01 10:56 | 37.55829 | 36.61595 | 16286 ft | 351 kts | 134° |
| 2026-05-01 10:57 | 37.54208 | 36.63885 | 15886 ft | 349 kts | 134° |
| 2026-05-01 10:57 | 37.52599 | 36.66156 | 15499 ft | 347 kts | 134° |
| 2026-05-01 10:57 | 37.50995 | 36.68416 | 15084 ft | 346 kts | 133° |
| 2026-05-01 10:57 | 37.49399 | 36.70673 | 14689 ft | 344 kts | 133° |
| 2026-05-01 10:58 | 37.47821 | 36.72922 | 14293 ft | 342 kts | 133° |
| 2026-05-01 10:58 | 37.46250 | 36.75166 | 13906 ft | 340 kts | 133° |
| 2026-05-01 10:58 | 37.44690 | 36.77397 | 13472 ft | 339 kts | 133° |
| 2026-05-01 10:58 | 37.43134 | 36.79617 | 13060 ft | 337 kts | 133° |
| 2026-05-01 10:59 | 37.41586 | 36.81824 | 12646 ft | 335 kts | 133° |
| 2026-05-01 10:59 | 37.40070 | 36.83984 | 12254 ft | 333 kts | 133° |
| 2026-05-01 10:59 | 37.38540 | 36.86161 | 11874 ft | 331 kts | 133° |
| 2026-05-01 10:59 | 37.37018 | 36.88327 | 11486 ft | 329 kts | 133° |
| 2026-05-01 11:00 | 37.35505 | 36.90479 | 11102 ft | 328 kts | 133° |
| 2026-05-01 11:00 | 37.33996 | 36.92621 | 10717 ft | 326 kts | 133° |
| 2026-05-01 11:00 | 37.32498 | 36.94747 | 10442 ft | 321 kts | 133° |
| 2026-05-01 11:00 | 37.31037 | 36.96820 | 10290 ft | 312 kts | 133° |
| 2026-05-01 11:01 | 37.29617 | 36.98835 | 10157 ft | 304 kts | 133° |
| 2026-05-01 11:01 | 37.28236 | 37.00794 | 10019 ft | 296 kts | 133° |
| 2026-05-01 11:01 | 37.26891 | 37.02698 | 9977 ft | 286 kts | 133° |
| 2026-05-01 11:01 | 37.25565 | 37.04580 | 9510 ft | 288 kts | 132° |
| 2026-05-01 11:02 | 37.24267 | 37.06470 | 9117 ft | 283 kts | 131° |
| 2026-05-01 11:02 | 37.23010 | 37.08320 | 8827 ft | 275 kts | 131° |
| 2026-05-01 11:02 | 37.21782 | 37.10126 | 8542 ft | 268 kts | 131° |
| 2026-05-01 11:02 | 37.20585 | 37.11885 | 8261 ft | 263 kts | 131° |
| 2026-05-01 11:03 | 37.19408 | 37.13614 | 7994 ft | 259 kts | 132° |
| 2026-05-01 11:03 | 37.18245 | 37.15319 | 7720 ft | 255 kts | 132° |
| 2026-05-01 11:03 | 37.17099 | 37.16997 | 7449 ft | 251 kts | 131° |
| 2026-05-01 11:03 | 37.15978 | 37.18637 | 7182 ft | 245 kts | 132° |
| 2026-05-01 11:04 | 37.14886 | 37.20231 | 7081 ft | 238 kts | 132° |
| 2026-05-01 11:04 | 37.13813 | 37.21797 | 6956 ft | 235 kts | 132° |
| 2026-05-01 11:04 | 37.12767 | 37.23325 | 6866 ft | 233 kts | 132° |
| 2026-05-01 11:04 | 37.11612 | 37.24720 | 6727 ft | 228 kts | 151° |
| 2026-05-01 11:05 | 37.10262 | 37.25624 | 6692 ft | 214 kts | 154° |
| 2026-05-01 11:05 | 37.08970 | 37.26485 | 6573 ft | 208 kts | 153° |
| 2026-05-01 11:05 | 37.07692 | 37.27348 | 6395 ft | 210 kts | 153° |
| 2026-05-01 11:05 | 37.06400 | 37.28224 | 6207 ft | 210 kts | 153° |
| 2026-05-01 11:06 | 37.05133 | 37.29090 | 5975 ft | 205 kts | 153° |
| 2026-05-01 11:06 | 37.03898 | 37.29935 | 5753 ft | 199 kts | 153° |
| 2026-05-01 11:06 | 37.02701 | 37.30754 | 5533 ft | 193 kts | 154° |
| 2026-05-01 11:07 | 37.00407 | 37.32321 | 5135 ft | 182 kts | 153° |
| 2026-05-01 11:07 | 36.99304 | 37.33074 | 4940 ft | 180 kts | 153° |
| 2026-05-01 11:07 | 36.98209 | 37.33856 | 4655 ft | 180 kts | 145° |
| 2026-05-01 11:07 | 36.97576 | 37.35137 | 4473 ft | 176 kts | 106° |
| 2026-05-01 11:08 | 36.97245 | 37.36607 | 4195 ft | 171 kts | 110° |
| 2026-05-01 11:08 | 36.96929 | 37.37990 | 3973 ft | 159 kts | 108° |
| 2026-05-01 11:08 | 36.96368 | 37.40591 | 3465 ft | 154 kts | 108° |
| 2026-05-01 11:09 | 36.96096 | 37.41881 | 3223 ft | 152 kts | 107° |
| 2026-05-01 11:09 | 36.95838 | 37.43136 | 2954 ft | 146 kts | 107° |
| 2026-05-01 11:09 | 36.95569 | 37.44351 | 2700 ft | 146 kts | 108° |
| 2026-05-01 11:10 | 36.95058 | 37.46719 | 2240 ft | 136 kts | 108° |
| 2026-05-01 11:10 | 36.94838 | 37.47744 | 2225 ft | 97 kts | 104° |
| 2026-05-01 11:10 | 36.94713 | 37.48306 | 2223 ft | 47 kts | 105° |
| 2026-05-01 11:10 | 36.94651 | 37.48595 | 2225 ft | 28 kts | 105° |
| 2026-05-01 11:11 | 36.94592 | 37.48780 | 2220 ft | 21 kts | 131° |
| 2026-05-01 11:11 | 36.94505 | 37.48889 | 2221 ft | 15 kts | 135° |
| 2026-05-01 11:11 | 36.94444 | 37.48941 | 2224 ft | 9 kts | 189° |
| 2026-05-01 11:11 | 36.94422 | 37.48880 | 2224 ft | 8 kts | 284° |
| 2026-05-01 11:12 | 36.94437 | 37.48810 | 2223 ft | 9 kts | 284° |
| 2026-05-01 11:12 | 36.94455 | 37.48727 | 2224 ft | 12 kts | 285° |
| 2026-05-01 11:12 | 36.94478 | 37.48617 | 2223 ft | 14 kts | 285° |
| 2026-05-01 11:12 | 36.94503 | 37.48503 | 2221 ft | 13 kts | 285° |
| 2026-05-01 11:13 | 36.94527 | 37.48393 | 2222 ft | 13 kts | 285° |
| 2026-05-01 11:13 | 36.94550 | 37.48287 | 2223 ft | 13 kts | 285° |
| 2026-05-01 11:13 | 36.94573 | 37.48184 | 2220 ft | 12 kts | 285° |
| 2026-05-01 11:13 | 36.94595 | 37.48082 | 2223 ft | 12 kts | 284° |
| 2026-05-01 11:14 | 36.94616 | 37.47984 | 2224 ft | 12 kts | 284° |
| 2026-05-01 11:14 | 36.94636 | 37.47888 | 2222 ft | 11 kts | 286° |
| 2026-05-01 11:14 | 36.94637 | 37.47805 | 2224 ft | 10 kts | 226° |
| 2026-05-01 11:14 | 36.94578 | 37.47815 | 2223 ft | 9 kts | 125° |
| 2026-05-01 11:15 | 36.94558 | 37.47892 | 2222 ft | 9 kts | 105° |
| 2026-05-01 11:15 | 36.94546 | 37.47930 | 2224 ft | 4 kts | 133° |
| 2026-05-01 11:15 | 36.94521 | 37.47930 | 2223 ft | 4 kts | 194° |
| 2026-05-01 11:15 | 36.94496 | 37.47922 | 2224 ft | 4 kts | 194° |
| 2026-05-01 11:16 | 36.94474 | 37.47915 | 2222 ft | 3 kts | 194° |
| 2026-05-01 11:16 | 36.94461 | 37.47911 | 2220 ft | 1 kts | 194° |
| 2026-05-01 11:16 | 36.94460 | 37.47911 | 2220 ft | 0 kts | 194° |